sensor_id;sensor_type;location;lat;lon;timestamp;pressure;altitude;pressure_sealevel;temperature;humidity
48926;BME280;39838;59.938;30.642;2023-05-22T00:01:27;101629.53;;;12.22;51.61
48926;BME280;39838;59.938;30.642;2023-05-22T00:03:54;101636.38;;;12.16;51.84
48926;BME280;39838;59.938;30.642;2023-05-22T00:06:22;101629.38;;;12.10;52.03
48926;BME280;39838;59.938;30.642;2023-05-22T00:08:49;101631.03;;;12.05;52.08
48926;BME280;39838;59.938;30.642;2023-05-22T00:11:17;101634.50;;;12.02;52.26
48926;BME280;39838;59.938;30.642;2023-05-22T00:13:46;101642.31;;;12.02;52.41
48926;BME280;39838;59.938;30.642;2023-05-22T00:16:13;101638.84;;;12.02;52.30
48926;BME280;39838;59.938;30.642;2023-05-22T00:18:40;101625.81;;;12.03;52.28
48926;BME280;39838;59.938;30.642;2023-05-22T00:21:07;101626.69;;;12.06;52.27
48926;BME280;39838;59.938;30.642;2023-05-22T00:23:35;101631.97;;;12.09;52.18
48926;BME280;39838;59.938;30.642;2023-05-22T00:26:02;101636.31;;;12.11;52.39
48926;BME280;39838;59.938;30.642;2023-05-22T00:28:30;101639.00;;;12.16;52.29
48926;BME280;39838;59.938;30.642;2023-05-22T00:30:58;101622.50;;;12.15;52.13
48926;BME280;39838;59.938;30.642;2023-05-22T00:33:26;101634.66;;;12.15;52.28
48926;BME280;39838;59.938;30.642;2023-05-22T00:35:53;101639.00;;;12.14;52.27
48926;BME280;39838;59.938;30.642;2023-05-22T00:38:27;101632.84;;;12.12;52.52
48926;BME280;39838;59.938;30.642;2023-05-22T00:40:57;101638.13;;;12.14;52.47
48926;BME280;39838;59.938;30.642;2023-05-22T00:43:24;101635.50;;;12.14;52.60
48926;BME280;39838;59.938;30.642;2023-05-22T00:45:52;101626.78;;;12.10;52.43
48926;BME280;39838;59.938;30.642;2023-05-22T00:48:21;101636.28;;;12.07;52.88
48926;BME280;39838;59.938;30.642;2023-05-22T00:50:50;101641.50;;;12.07;52.67
48926;BME280;39838;59.938;30.642;2023-05-22T00:53:19;101627.56;;;12.05;52.81
48926;BME280;39838;59.938;30.642;2023-05-22T00:55:47;101632.78;;;12.05;52.85
48926;BME280;39838;59.938;30.642;2023-05-22T00:58:16;101615.38;;;11.99;52.88
48926;BME280;39838;59.938;30.642;2023-05-22T01:00:44;101624.94;;;12.03;52.80
48926;BME280;39838;59.938;30.642;2023-05-22T01:03:13;101620.59;;;12.02;53.15
48926;BME280;39838;59.938;30.642;2023-05-22T01:05:42;101617.06;;;11.97;53.19
48926;BME280;39838;59.938;30.642;2023-05-22T01:08:10;101619.66;;;11.94;53.14
48926;BME280;39838;59.938;30.642;2023-05-22T01:10:38;101626.59;;;11.95;53.08
48926;BME280;39838;59.938;30.642;2023-05-22T01:13:14;101612.63;;;11.90;53.23
48926;BME280;39838;59.938;30.642;2023-05-22T01:15:48;101614.28;;;11.83;53.44
48926;BME280;39838;59.938;30.642;2023-05-22T01:18:23;101609.81;;;11.73;53.44
48926;BME280;39838;59.938;30.642;2023-05-22T01:21:02;101615.91;;;11.75;53.62
48926;BME280;39838;59.938;30.642;2023-05-22T01:23:48;101611.50;;;11.71;53.53
48926;BME280;39838;59.938;30.642;2023-05-22T01:29:42;101611.44;;;11.66;53.85
48926;BME280;39838;59.938;30.642;2023-05-22T01:32:15;101613.19;;;11.66;53.97
48926;BME280;39838;59.938;30.642;2023-05-22T01:34:44;101602.69;;;11.61;54.41
48926;BME280;39838;59.938;30.642;2023-05-22T01:37:14;101609.66;;;11.64;54.25
48926;BME280;39838;59.938;30.642;2023-05-22T01:39:42;101600.09;;;11.60;54.56
48926;BME280;39838;59.938;30.642;2023-05-22T01:42:10;101603.56;;;11.62;54.70
48926;BME280;39838;59.938;30.642;2023-05-22T01:44:37;101607.97;;;11.66;54.60
48926;BME280;39838;59.938;30.642;2023-05-22T01:47:05;101573.09;;;11.52;54.88
48926;BME280;39838;59.938;30.642;2023-05-22T01:49:34;101592.34;;;11.66;54.85
48926;BME280;39838;59.938;30.642;2023-05-22T01:52:07;101577.38;;;11.51;55.18
48926;BME280;39838;59.938;30.642;2023-05-22T01:54:41;101606.25;;;11.66;54.87
48926;BME280;39838;59.938;30.642;2023-05-22T01:57:16;101601.00;;;11.65;55.21
48926;BME280;39838;59.938;30.642;2023-05-22T01:59:49;101595.75;;;11.62;55.10
48926;BME280;39838;59.938;30.642;2023-05-22T02:02:22;101594.91;;;11.64;55.12
48926;BME280;39838;59.938;30.642;2023-05-22T02:04:57;101600.13;;;11.63;55.06
48926;BME280;39838;59.938;30.642;2023-05-22T02:07:26;101597.56;;;11.66;55.23
48926;BME280;39838;59.938;30.642;2023-05-22T02:09:55;101588.91;;;11.70;55.23
48926;BME280;39838;59.938;30.642;2023-05-22T02:12:23;101602.88;;;11.75;55.26
48926;BME280;39838;59.938;30.642;2023-05-22T02:14:51;101596.88;;;11.79;55.21
48926;BME280;39838;59.938;30.642;2023-05-22T02:17:19;101595.19;;;11.81;55.05
48926;BME280;39838;59.938;30.642;2023-05-22T02:19:47;101588.25;;;11.83;55.03
48926;BME280;39838;59.938;30.642;2023-05-22T02:22:15;101582.19;;;11.84;54.99
48926;BME280;39838;59.938;30.642;2023-05-22T02:24:46;101578.72;;;11.85;55.17
48926;BME280;39838;59.938;30.642;2023-05-22T02:27:13;101585.69;;;11.86;54.91
48926;BME280;39838;59.938;30.642;2023-05-22T02:29:41;101583.97;;;11.88;55.23
48926;BME280;39838;59.938;30.642;2023-05-22T02:32:08;101572.72;;;11.89;55.06
48926;BME280;39838;59.938;30.642;2023-05-22T02:34:36;101572.72;;;11.91;55.13
48926;BME280;39838;59.938;30.642;2023-05-22T02:37:04;101576.22;;;11.93;55.26
48926;BME280;39838;59.938;30.642;2023-05-22T02:39:33;101589.28;;;11.97;55.11
48926;BME280;39838;59.938;30.642;2023-05-22T02:42:00;101604.94;;;11.99;55.18
48926;BME280;39838;59.938;30.642;2023-05-22T02:44:28;101604.03;;;11.94;55.17
48926;BME280;39838;59.938;30.642;2023-05-22T02:46:55;101603.16;;;11.96;54.97
48926;BME280;39838;59.938;30.642;2023-05-22T02:49:23;101611.84;;;11.97;55.33
48926;BME280;39838;59.938;30.642;2023-05-22T02:51:50;101610.13;;;11.97;55.75
48926;BME280;39838;59.938;30.642;2023-05-22T02:54:17;101616.28;;;12.04;55.40
48926;BME280;39838;59.938;30.642;2023-05-22T02:56:46;101613.69;;;12.06;55.49
48926;BME280;39838;59.938;30.642;2023-05-22T02:59:13;101628.50;;;12.10;55.53
48926;BME280;39838;59.938;30.642;2023-05-22T03:01:41;101627.63;;;12.11;55.76
48926;BME280;39838;59.938;30.642;2023-05-22T03:04:09;101598.06;;;12.06;55.68
48926;BME280;39838;59.938;30.642;2023-05-22T03:06:37;101613.81;;;12.16;55.98
48926;BME280;39838;59.938;30.642;2023-05-22T03:09:04;101618.22;;;12.20;56.13
48926;BME280;39838;59.938;30.642;2023-05-22T03:11:33;101613.00;;;12.20;55.99
48926;BME280;39838;59.938;30.642;2023-05-22T03:14:02;101608.66;;;12.19;56.46
48926;BME280;39838;59.938;30.642;2023-05-22T03:16:29;101615.63;;;12.22;56.89
48926;BME280;39838;59.938;30.642;2023-05-22T03:19:06;101606.88;;;12.18;56.51
48926;BME280;39838;59.938;30.642;2023-05-22T03:21:34;101618.31;;;12.29;56.73
48926;BME280;39838;59.938;30.642;2023-05-22T03:24:02;101618.31;;;12.33;56.99
48926;BME280;39838;59.938;30.642;2023-05-22T03:26:29;101614.03;;;12.36;57.27
48926;BME280;39838;59.938;30.642;2023-05-22T03:28:57;101610.63;;;12.40;57.32
48926;BME280;39838;59.938;30.642;2023-05-22T03:31:27;101616.69;;;12.41;57.48
48926;BME280;39838;59.938;30.642;2023-05-22T03:33:56;101609.69;;;12.37;58.12
48926;BME280;39838;59.938;30.642;2023-05-22T03:36:23;101614.97;;;12.46;58.34
48926;BME280;39838;59.938;30.642;2023-05-22T03:38:51;101608.09;;;12.51;58.74
48926;BME280;39838;59.938;30.642;2023-05-22T03:41:18;101609.88;;;12.55;59.26
48926;BME280;39838;59.938;30.642;2023-05-22T03:43:46;101609.06;;;12.61;59.57
48926;BME280;39838;59.938;30.642;2023-05-22T03:46:13;101618.72;;;12.71;59.78
48926;BME280;39838;59.938;30.642;2023-05-22T03:48:42;101615.28;;;12.75;59.80
48926;BME280;39838;59.938;30.642;2023-05-22T03:51:09;101606.59;;;12.79;60.42
48926;BME280;39838;59.938;30.642;2023-05-22T03:53:36;101602.31;;;12.82;60.89
48926;BME280;39838;59.938;30.642;2023-05-22T03:56:04;101611.91;;;12.88;61.37
48926;BME280;39838;59.938;30.642;2023-05-22T03:58:31;101598.00;;;12.89;61.43
48926;BME280;39838;59.938;30.642;2023-05-22T04:00:58;101605.06;;;13.01;61.53
48926;BME280;39838;59.938;30.642;2023-05-22T04:03:27;101600.72;;;13.06;62.24
48926;BME280;39838;59.938;30.642;2023-05-22T04:05:56;101600.78;;;13.10;62.08
48926;BME280;39838;59.938;30.642;2023-05-22T04:08:24;101592.94;;;13.09;62.66
48926;BME280;39838;59.938;30.642;2023-05-22T04:10:51;101599.94;;;13.19;62.62
48926;BME280;39838;59.938;30.642;2023-05-22T04:13:19;101599.94;;;13.19;62.99
48926;BME280;39838;59.938;30.642;2023-05-22T04:15:46;101607.81;;;13.21;63.23
48926;BME280;39838;59.938;30.642;2023-05-22T04:18:15;101604.28;;;13.16;63.87
48926;BME280;39838;59.938;30.642;2023-05-22T04:20:42;101604.25;;;13.11;64.59
48926;BME280;39838;59.938;30.642;2023-05-22T04:23:11;101599.81;;;12.99;65.57
48926;BME280;39838;59.938;30.642;2023-05-22T04:25:39;101599.69;;;12.84;66.96
48926;BME280;39838;59.938;30.642;2023-05-22T04:28:06;101587.41;;;12.71;67.04
48926;BME280;39838;59.938;30.642;2023-05-22T04:30:33;101591.69;;;12.63;67.98
48926;BME280;39838;59.938;30.642;2023-05-22T04:33:02;101589.03;;;12.55;67.98
48926;BME280;39838;59.938;30.642;2023-05-22T04:35:30;101580.28;;;12.50;68.20
48926;BME280;39838;59.938;30.642;2023-05-22T04:37:59;101570.72;;;12.47;69.42
48926;BME280;39838;59.938;30.642;2023-05-22T04:40:29;101565.50;;;12.50;69.82
48926;BME280;39838;59.938;30.642;2023-05-22T04:42:58;101557.75;;;12.53;70.39
48926;BME280;39838;59.938;30.642;2023-05-22T04:45:26;101554.38;;;12.71;70.48
48926;BME280;39838;59.938;30.642;2023-05-22T04:47:55;101555.34;;;12.81;70.02
48926;BME280;39838;59.938;30.642;2023-05-22T04:50:22;101555.41;;;12.90;69.78
48926;BME280;39838;59.938;30.642;2023-05-22T04:52:50;101549.38;;;12.97;69.10
48926;BME280;39838;59.938;30.642;2023-05-22T04:55:18;101547.69;;;13.07;69.68
48926;BME280;39838;59.938;30.642;2023-05-22T04:57:48;101546.91;;;13.19;69.89
48926;BME280;39838;59.938;30.642;2023-05-22T05:00:18;101541.78;;;13.34;70.18
48926;BME280;39838;59.938;30.642;2023-05-22T05:02:51;101537.53;;;13.50;69.29
48926;BME280;39838;59.938;30.642;2023-05-22T05:05:19;101541.09;;;13.75;69.37
48926;BME280;39838;59.938;30.642;2023-05-22T05:07:48;101515.91;;;13.92;68.65
48926;BME280;39838;59.938;30.642;2023-05-22T05:10:16;101529.91;;;14.25;68.36
48926;BME280;39838;59.938;30.642;2023-05-22T05:12:44;101522.94;;;14.37;68.08
48926;BME280;39838;59.938;30.642;2023-05-22T05:15:13;101527.31;;;14.49;68.22
48926;BME280;39838;59.938;30.642;2023-05-22T05:17:40;101524.72;;;14.52;68.63
48926;BME280;39838;59.938;30.642;2023-05-22T05:20:08;101516.00;;;14.50;69.08
48926;BME280;39838;59.938;30.642;2023-05-22T05:22:39;101519.50;;;14.52;68.97
48926;BME280;39838;59.938;30.642;2023-05-22T05:25:08;101518.63;;;14.50;69.56
48926;BME280;39838;59.938;30.642;2023-05-22T05:27:36;101508.16;;;14.52;69.81
48926;BME280;39838;59.938;30.642;2023-05-22T05:30:04;101522.97;;;14.60;69.79
48926;BME280;39838;59.938;30.642;2023-05-22T05:32:33;101516.00;;;14.70;70.20
48926;BME280;39838;59.938;30.642;2023-05-22T05:35:01;101512.47;;;14.83;70.03
48926;BME280;39838;59.938;30.642;2023-05-22T05:37:31;101508.97;;;14.95;70.37
48926;BME280;39838;59.938;30.642;2023-05-22T05:39:58;101508.97;;;15.01;70.06
48926;BME280;39838;59.938;30.642;2023-05-22T05:42:26;101506.31;;;15.10;69.86
48926;BME280;39838;59.938;30.642;2023-05-22T05:44:53;101515.00;;;15.26;69.85
48926;BME280;39838;59.938;30.642;2023-05-22T05:47:20;101507.97;;;15.42;69.21
48926;BME280;39838;59.938;30.642;2023-05-22T05:49:50;101507.06;;;15.53;69.27
48926;BME280;39838;59.938;30.642;2023-05-22T05:52:17;101511.38;;;15.67;69.18
48926;BME280;39838;59.938;30.642;2023-05-22T05:54:44;101506.88;;;15.93;69.02
48926;BME280;39838;59.938;30.642;2023-05-22T05:57:13;101511.94;;;16.19;68.79
48926;BME280;39838;59.938;30.642;2023-05-22T05:59:40;101518.81;;;16.34;68.53
48926;BME280;39838;59.938;30.642;2023-05-22T06:02:08;101517.84;;;16.44;68.03
48926;BME280;39838;59.938;30.642;2023-05-22T06:04:35;101517.75;;;16.56;67.50
48926;BME280;39838;59.938;30.642;2023-05-22T06:07:04;101519.38;;;16.76;66.84
48926;BME280;39838;59.938;30.642;2023-05-22T06:09:32;101525.22;;;17.04;65.96
48926;BME280;39838;59.938;30.642;2023-05-22T06:12:00;101516.88;;;17.43;64.79
48926;BME280;39838;59.938;30.642;2023-05-22T06:14:28;101514.72;;;17.78;63.43
48926;BME280;39838;59.938;30.642;2023-05-22T06:16:55;101516.13;;;18.03;62.31
48926;BME280;39838;59.938;30.642;2023-05-22T06:19:23;101526.56;;;18.06;61.88
48926;BME280;39838;59.938;30.642;2023-05-22T06:21:50;101521.44;;;17.98;60.65
48926;BME280;39838;59.938;30.642;2023-05-22T06:24:18;101529.25;;;18.01;60.92
48926;BME280;39838;59.938;30.642;2023-05-22T06:26:46;101510.03;;;17.99;61.00
48926;BME280;39838;59.938;30.642;2023-05-22T06:29:13;101527.34;;;18.16;60.80
48926;BME280;39838;59.938;30.642;2023-05-22T06:31:40;101528.81;;;18.32;60.94
48926;BME280;39838;59.938;30.642;2023-05-22T06:34:08;101526.63;;;18.59;60.27
48926;BME280;39838;59.938;30.642;2023-05-22T06:36:35;101520.09;;;18.84;59.27
48926;BME280;39838;59.938;30.642;2023-05-22T06:39:02;101521.50;;;19.03;58.43
48926;BME280;39838;59.938;30.642;2023-05-22T06:41:31;101518.75;;;19.08;57.90
48926;BME280;39838;59.938;30.642;2023-05-22T06:44:00;101514.22;;;19.15;57.47
48926;BME280;39838;59.938;30.642;2023-05-22T06:46:28;101498.50;;;19.12;57.04
48926;BME280;39838;59.938;30.642;2023-05-22T06:48:55;101506.41;;;19.12;57.36
48926;BME280;39838;59.938;30.642;2023-05-22T06:51:24;101504.81;;;19.01;57.10
48926;BME280;39838;59.938;30.642;2023-05-22T06:53:51;101496.22;;;18.93;57.23
48926;BME280;39838;59.938;30.642;2023-05-22T06:56:19;101505.91;;;18.91;57.27
48926;BME280;39838;59.938;30.642;2023-05-22T06:58:48;101502.50;;;18.86;57.78
48926;BME280;39838;59.938;30.642;2023-05-22T07:01:16;101499.97;;;18.80;57.42
48926;BME280;39838;59.938;30.642;2023-05-22T07:03:43;101512.25;;;18.79;57.49
48926;BME280;39838;59.938;30.642;2023-05-22T07:06:11;101517.56;;;18.78;57.43
48926;BME280;39838;59.938;30.642;2023-05-22T07:08:38;101517.59;;;18.76;57.64
48926;BME280;39838;59.938;30.642;2023-05-22T07:11:05;101515.84;;;18.75;57.61
48926;BME280;39838;59.938;30.642;2023-05-22T07:13:33;101517.59;;;18.75;57.57
48926;BME280;39838;59.938;30.642;2023-05-22T07:16:02;101514.94;;;18.78;57.78
48926;BME280;39838;59.938;30.642;2023-05-22T07:18:30;101504.09;;;18.93;57.57
48926;BME280;39838;59.938;30.642;2023-05-22T07:20:57;101505.56;;;19.08;57.53
48926;BME280;39838;59.938;30.642;2023-05-22T07:23:24;101502.63;;;19.23;57.27
48926;BME280;39838;59.938;30.642;2023-05-22T07:25:52;101498.78;;;19.41;57.18
48926;BME280;39838;59.938;30.642;2023-05-22T07:28:19;101495.91;;;19.52;56.78
48926;BME280;39838;59.938;30.642;2023-05-22T07:30:46;101490.66;;;19.52;56.73
48926;BME280;39838;59.938;30.642;2023-05-22T07:33:15;101487.06;;;19.54;57.01
48926;BME280;39838;59.938;30.642;2023-05-22T07:35:42;101476.53;;;19.54;57.03
48926;BME280;39838;59.938;30.642;2023-05-22T07:38:10;101478.13;;;19.65;57.04
48926;BME280;39838;59.938;30.642;2023-05-22T07:40:37;101477.72;;;19.81;56.90
48926;BME280;39838;59.938;30.642;2023-05-22T07:43:04;101479.94;;;19.98;56.82
48926;BME280;39838;59.938;30.642;2023-05-22T07:45:32;101472.81;;;20.03;56.51
48926;BME280;39838;59.938;30.642;2023-05-22T07:47:59;101470.63;;;20.21;56.30
48926;BME280;39838;59.938;30.642;2023-05-22T07:50:29;101476.19;;;20.45;55.70
48926;BME280;39838;59.938;30.642;2023-05-22T07:52:58;101471.38;;;20.61;55.16
48926;BME280;39838;59.938;30.642;2023-05-22T07:55:25;101468.66;;;20.64;55.00
48926;BME280;39838;59.938;30.642;2023-05-22T07:57:52;101467.59;;;20.71;54.95
48926;BME280;39838;59.938;30.642;2023-05-22T08:00:21;101467.25;;;20.84;54.37
48926;BME280;39838;59.938;30.642;2023-05-22T08:02:49;101458.69;;;20.76;54.00
48926;BME280;39838;59.938;30.642;2023-05-22T08:05:16;101460.53;;;20.72;54.41
48926;BME280;39838;59.938;30.642;2023-05-22T08:07:45;101465.84;;;20.70;54.04
48926;BME280;39838;59.938;30.642;2023-05-22T08:10:14;101446.56;;;20.68;54.25
48926;BME280;39838;59.938;30.642;2023-05-22T08:12:41;101453.41;;;20.76;53.48
48926;BME280;39838;59.938;30.642;2023-05-22T08:15:10;101444.78;;;20.69;53.65
48926;BME280;39838;59.938;30.642;2023-05-22T08:17:37;101450.44;;;20.55;54.13
48926;BME280;39838;59.938;30.642;2023-05-22T08:20:06;101455.97;;;20.44;54.23
48926;BME280;39838;59.938;30.642;2023-05-22T08:22:33;101449.88;;;20.41;54.05
48926;BME280;39838;59.938;30.642;2023-05-22T08:25:04;101450.69;;;20.44;53.69
48926;BME280;39838;59.938;30.642;2023-05-22T08:27:31;101450.59;;;20.49;53.63
48926;BME280;39838;59.938;30.642;2023-05-22T08:29:58;101436.75;;;20.38;52.98
48926;BME280;39838;59.938;30.642;2023-05-22T08:32:26;101444.69;;;20.38;52.47
48926;BME280;39838;59.938;30.642;2023-05-22T08:34:53;101448.28;;;20.35;52.28
48926;BME280;39838;59.938;30.642;2023-05-22T08:37:20;101448.22;;;20.37;52.30
48926;BME280;39838;59.938;30.642;2023-05-22T08:39:48;101454.25;;;20.42;51.58
48926;BME280;39838;59.938;30.642;2023-05-22T08:42:18;101450.69;;;20.46;51.48
48926;BME280;39838;59.938;30.642;2023-05-22T08:44:45;101446.16;;;20.50;51.47
48926;BME280;39838;59.938;30.642;2023-05-22T08:47:13;101453.41;;;20.41;51.10
48926;BME280;39838;59.938;30.642;2023-05-22T08:49:41;101446.09;;;20.53;51.53
48926;BME280;39838;59.938;30.642;2023-05-22T08:52:11;101442.56;;;20.85;51.42
48926;BME280;39838;59.938;30.642;2023-05-22T08:54:40;101441.09;;;21.07;50.53
48926;BME280;39838;59.938;30.642;2023-05-22T08:57:08;101441.72;;;21.15;50.21
48926;BME280;39838;59.938;30.642;2023-05-22T08:59:38;101444.38;;;21.15;49.88
48926;BME280;39838;59.938;30.642;2023-05-22T09:02:06;101443.44;;;21.16;50.42
48926;BME280;39838;59.938;30.642;2023-05-22T09:04:33;101450.47;;;21.17;50.54
48926;BME280;39838;59.938;30.642;2023-05-22T09:07:01;101446.91;;;21.18;50.21
48926;BME280;39838;59.938;30.642;2023-05-22T09:09:31;101448.00;;;21.11;50.50
48926;BME280;39838;59.938;30.642;2023-05-22T09:11:59;101445.28;;;21.14;50.19
48926;BME280;39838;59.938;30.642;2023-05-22T09:14:26;101442.47;;;21.19;49.69
48926;BME280;39838;59.938;30.642;2023-05-22T09:16:55;101438.81;;;21.24;49.15
48926;BME280;39838;59.938;30.642;2023-05-22T09:19:22;101439.59;;;21.26;49.27
48926;BME280;39838;59.938;30.642;2023-05-22T09:21:49;101438.84;;;21.23;48.72
48926;BME280;39838;59.938;30.642;2023-05-22T09:24:17;101442.72;;;21.11;48.39
48926;BME280;39838;59.938;30.642;2023-05-22T09:26:44;101436.69;;;21.06;48.95
48926;BME280;39838;59.938;30.642;2023-05-22T09:29:12;101438.34;;;21.10;48.45
48926;BME280;39838;59.938;30.642;2023-05-22T09:31:41;101434.03;;;21.08;48.34
48926;BME280;39838;59.938;30.642;2023-05-22T09:34:10;101436.34;;;21.18;48.24
48926;BME280;39838;59.938;30.642;2023-05-22T09:36:40;101427.97;;;21.34;48.42
48926;BME280;39838;59.938;30.642;2023-05-22T09:39:07;101422.44;;;21.43;47.72
48926;BME280;39838;59.938;30.642;2023-05-22T09:41:38;101390.41;;;21.22;48.16
48926;BME280;39838;59.938;30.642;2023-05-22T09:44:11;101420.34;;;21.52;47.84
48926;BME280;39838;59.938;30.642;2023-05-22T09:46:40;101411.06;;;21.69;46.65
48926;BME280;39838;59.938;30.642;2023-05-22T09:49:07;101407.91;;;21.84;46.02
48926;BME280;39838;59.938;30.642;2023-05-22T09:51:37;101410.03;;;21.99;45.10
48926;BME280;39838;59.938;30.642;2023-05-22T09:54:07;101406.69;;;22.22;44.47
48926;BME280;39838;59.938;30.642;2023-05-22T09:56:35;101408.38;;;22.50;44.22
48926;BME280;39838;59.938;30.642;2023-05-22T09:59:07;101377.81;;;22.65;42.80
48926;BME280;39838;59.938;30.642;2023-05-22T10:01:35;101397.97;;;22.94;43.37
48926;BME280;39838;59.938;30.642;2023-05-22T10:04:03;101396.25;;;22.93;43.04
48926;BME280;39838;59.938;30.642;2023-05-22T10:06:31;101393.59;;;22.93;42.85
48926;BME280;39838;59.938;30.642;2023-05-22T10:09:04;101387.78;;;22.81;42.91
48926;BME280;39838;59.938;30.642;2023-05-22T10:11:34;101385.34;;;22.75;43.21
48926;BME280;39838;59.938;30.642;2023-05-22T10:14:02;101342.75;;;22.58;42.69
48926;BME280;39838;59.938;30.642;2023-05-22T10:16:30;101379.47;;;22.92;42.26
48926;BME280;39838;59.938;30.642;2023-05-22T10:18:59;101368.19;;;22.87;42.51
48926;BME280;39838;59.938;30.642;2023-05-22T10:21:28;101341.38;;;22.71;42.94
48926;BME280;39838;59.938;30.642;2023-05-22T10:23:56;101369.22;;;22.83;42.96
48926;BME280;39838;59.938;30.642;2023-05-22T10:26:27;101367.53;;;22.80;42.91
48926;BME280;39838;59.938;30.642;2023-05-22T10:28:59;101357.16;;;22.74;43.29
48926;BME280;39838;59.938;30.642;2023-05-22T10:31:35;101358.00;;;22.75;43.28
48926;BME280;39838;59.938;30.642;2023-05-22T10:34:09;101344.44;;;22.84;42.88
48926;BME280;39838;59.938;30.642;2023-05-22T10:36:46;101345.91;;;22.93;43.22
48926;BME280;39838;59.938;30.642;2023-05-22T10:39:28;101344.03;;;22.95;42.76
48926;BME280;39838;59.938;30.642;2023-05-22T10:42:00;101349.75;;;22.84;43.01
48926;BME280;39838;59.938;30.642;2023-05-22T10:44:28;101350.13;;;22.73;42.94
48926;BME280;39838;59.938;30.642;2023-05-22T10:46:55;101335.88;;;22.52;43.24
48926;BME280;39838;59.938;30.642;2023-05-22T10:49:22;101341.69;;;22.39;43.11
48926;BME280;39838;59.938;30.642;2023-05-22T10:51:55;101334.94;;;22.30;42.97
48926;BME280;39838;59.938;30.642;2023-05-22T10:54:37;101329.59;;;22.31;42.74
48926;BME280;39838;59.938;30.642;2023-05-22T10:57:12;101323.50;;;22.53;42.34
48926;BME280;39838;59.938;30.642;2023-05-22T10:59:40;101321.53;;;23.06;42.12
48926;BME280;39838;59.938;30.642;2023-05-22T11:02:18;101322.94;;;23.37;41.49
48926;BME280;39838;59.938;30.642;2023-05-22T11:04:46;101323.81;;;23.59;40.61
48926;BME280;39838;59.938;30.642;2023-05-22T11:07:13;101322.78;;;23.85;40.22
48926;BME280;39838;59.938;30.642;2023-05-22T11:09:41;101321.84;;;24.07;40.17
48926;BME280;39838;59.938;30.642;2023-05-22T11:12:22;101308.16;;;23.95;39.87
48926;BME280;39838;59.938;30.642;2023-05-22T11:14:51;101324.88;;;23.97;39.80
48926;BME280;39838;59.938;30.642;2023-05-22T11:17:23;101302.41;;;23.64;39.82
48926;BME280;39838;59.938;30.642;2023-05-22T11:19:58;101323.56;;;23.43;41.07
48926;BME280;39838;59.938;30.642;2023-05-22T11:22:30;101312.34;;;23.15;41.29
48926;BME280;39838;59.938;30.642;2023-05-22T11:24:58;101305.75;;;23.03;41.79
48926;BME280;39838;59.938;30.642;2023-05-22T11:27:28;101309.94;;;23.09;42.23
48926;BME280;39838;59.938;30.642;2023-05-22T11:29:55;101310.91;;;23.06;41.96
48926;BME280;39838;59.938;30.642;2023-05-22T11:32:24;101305.28;;;22.92;41.77
48926;BME280;39838;59.938;30.642;2023-05-22T11:34:52;101299.81;;;22.73;42.10
48926;BME280;39838;59.938;30.642;2023-05-22T11:37:20;101292.00;;;22.69;42.18
48926;BME280;39838;59.938;30.642;2023-05-22T11:39:53;101282.03;;;22.77;41.80
48926;BME280;39838;59.938;30.642;2023-05-22T11:42:21;101275.97;;;22.73;41.39
48926;BME280;39838;59.938;30.642;2023-05-22T11:44:50;101274.69;;;22.60;40.91
48926;BME280;39838;59.938;30.642;2023-05-22T11:47:17;101267.13;;;22.51;40.16
48926;BME280;39838;59.938;30.642;2023-05-22T11:49:45;101256.69;;;22.46;39.68
48926;BME280;39838;59.938;30.642;2023-05-22T11:52:12;101250.22;;;22.53;39.48
48926;BME280;39838;59.938;30.642;2023-05-22T11:54:39;101251.44;;;22.68;39.96
48926;BME280;39838;59.938;30.642;2023-05-22T11:57:07;101247.63;;;22.75;40.26
48926;BME280;39838;59.938;30.642;2023-05-22T11:59:35;101247.44;;;22.80;40.98
48926;BME280;39838;59.938;30.642;2023-05-22T12:02:04;101243.38;;;22.71;40.88
48926;BME280;39838;59.938;30.642;2023-05-22T12:04:32;101257.88;;;22.61;41.25
48926;BME280;39838;59.938;30.642;2023-05-22T12:06:59;101232.69;;;22.51;40.62
48926;BME280;39838;59.938;30.642;2023-05-22T12:09:27;101255.38;;;22.58;40.09
48926;BME280;39838;59.938;30.642;2023-05-22T12:11:55;101237.22;;;22.47;40.46
48926;BME280;39838;59.938;30.642;2023-05-22T12:14:24;101253.28;;;22.66;40.49
48926;BME280;39838;59.938;30.642;2023-05-22T12:16:52;101263.69;;;22.94;39.27
48926;BME280;39838;59.938;30.642;2023-05-22T12:19:21;101262.63;;;22.76;38.49
48926;BME280;39838;59.938;30.642;2023-05-22T12:21:51;101280.28;;;22.52;38.80
48926;BME280;39838;59.938;30.642;2023-05-22T12:24:19;101285.38;;;22.33;38.95
48926;BME280;39838;59.938;30.642;2023-05-22T12:26:49;101286.81;;;22.19;39.43
48926;BME280;39838;59.938;30.642;2023-05-22T12:29:16;101279.00;;;22.16;39.51
48926;BME280;39838;59.938;30.642;2023-05-22T12:31:44;101268.63;;;22.08;39.75
48926;BME280;39838;59.938;30.642;2023-05-22T12:34:13;101278.28;;;22.11;39.66
48926;BME280;39838;59.938;30.642;2023-05-22T12:36:45;101255.84;;;21.96;39.60
48926;BME280;39838;59.938;30.642;2023-05-22T12:39:16;101272.31;;;22.04;39.89
48926;BME280;39838;59.938;30.642;2023-05-22T12:41:44;101275.06;;;22.01;39.89
48926;BME280;39838;59.938;30.642;2023-05-22T12:44:13;101269.88;;;21.98;39.71
48926;BME280;39838;59.938;30.642;2023-05-22T12:46:41;101282.63;;;21.87;39.82
48926;BME280;39838;59.938;30.642;2023-05-22T12:49:09;101287.50;;;21.72;39.90
48926;BME280;39838;59.938;30.642;2023-05-22T12:51:37;101301.56;;;21.48;40.55